createdAt,value
2023-04-02T00:05:51.693Z,0.40
2023-04-02T00:15:58.291Z,0.13
2023-04-02T00:26:00.628Z,0.20
2023-04-02T00:36:08.285Z,0.30
2023-04-02T00:46:22.298Z,0.30
2023-04-02T00:56:47.675Z,0.20
2023-04-02T01:17:15.837Z,0.20
2023-04-02T01:27:50.768Z,0.13
2023-04-02T01:38:19.571Z,0.20
2023-04-02T01:48:28.277Z,0.17
2023-04-02T01:58:33.964Z,0.23
2023-04-02T02:08:47.118Z,0.30
2023-04-02T02:18:56.561Z,0.10
2023-04-02T02:29:00.136Z,0.37
2023-04-02T02:39:33.659Z,0.23
2023-04-02T02:49:41.779Z,0.37
2023-04-02T02:59:46.027Z,0.50
2023-04-02T03:10:14.253Z,0.27
2023-04-02T03:20:26.390Z,0.33
2023-04-02T03:30:58.767Z,0.20
2023-04-02T03:41:23.111Z,0.20
2023-04-02T03:51:33.689Z,0.13
2023-04-02T04:01:44.042Z,0.20
2023-04-02T04:11:50.569Z,0.20
2023-04-02T04:21:57.348Z,0.30
2023-04-02T04:32:34.039Z,0.20
2023-04-02T04:42:42.123Z,0.17
2023-04-02T04:52:44.842Z,0.20
2023-04-02T05:03:09.525Z,0.10
2023-04-02T05:13:21.673Z,0.27
2023-04-02T05:23:29.103Z,0.10
2023-04-02T05:33:36.605Z,0.30
2023-04-02T05:43:44.939Z,0.20
2023-04-02T05:53:54.074Z,0.30
2023-04-02T06:04:31.827Z,0.20
2023-04-02T06:14:34.400Z,0.37
2023-04-02T06:24:40.004Z,0.20
2023-04-02T06:34:43.060Z,0.07
2023-04-02T06:44:45.657Z,0.30
2023-04-02T06:54:48.932Z,0.60
2023-04-02T07:04:51.821Z,0.47
2023-04-02T07:14:54.295Z,0.80
2023-04-02T07:24:56.813Z,2.30
2023-04-02T07:34:59.764Z,1.53
2023-04-02T07:45:04.646Z,0.97
2023-04-02T07:55:13.607Z,0.80
2023-04-02T08:05:16.532Z,0.33
2023-04-02T08:15:20.271Z,0.20
2023-04-02T08:25:25.034Z,0.10
2023-04-02T08:45:51.808Z,0.10
2023-04-02T08:56:06.103Z,1.03
2023-04-02T09:06:14.783Z,0.10
2023-04-02T09:16:26.172Z,0.10
2023-04-02T09:26:33.602Z,0.00
2023-04-02T09:36:39.805Z,0.05
2023-04-02T09:46:53.828Z,0.08
2023-04-02T09:57:04.959Z,0.00
2023-04-02T10:07:07.504Z,0.10
2023-04-02T10:17:31.703Z,0.00
2023-04-02T10:27:57.089Z,0.00
2023-04-02T10:38:35.323Z,0.00
2023-04-02T10:48:42.891Z,0.00
2023-04-02T10:59:02.923Z,0.00
2023-04-02T11:09:11.587Z,0.00
2023-04-02T11:19:20.160Z,0.00
2023-04-02T11:29:28.072Z,0.00
2023-04-02T11:39:54.107Z,0.00
2023-04-02T11:49:58.721Z,0.10
2023-04-02T12:00:11.755Z,0.10
2023-04-02T12:10:20.436Z,0.00
2023-04-02T12:20:27.824Z,0.10
2023-04-02T12:30:30.931Z,0.00
2023-04-02T12:40:33.443Z,0.10
2023-04-02T12:50:37.188Z,0.10
2023-04-02T13:00:40.720Z,0.00
2023-04-02T13:10:44.599Z,0.10
2023-04-02T13:21:07.518Z,0.10
2023-04-02T13:31:20.061Z,0.08
2023-04-02T13:41:34.348Z,0.00
2023-04-02T13:51:41.667Z,0.20
2023-04-02T14:01:51.705Z,0.00
2023-04-02T14:12:05.006Z,0.00
2023-04-02T14:22:21.469Z,0.17
2023-04-02T14:32:52.366Z,0.10
2023-04-02T14:43:06.621Z,0.05
2023-04-02T14:53:19.897Z,0.00
2023-04-02T15:03:25.550Z,0.10
2023-04-02T15:13:39.029Z,0.00
2023-04-02T15:24:02.711Z,0.00
2023-04-02T15:34:14.489Z,0.00
2023-04-02T15:44:18.075Z,0.08
2023-04-02T15:54:36.598Z,0.17
2023-04-02T16:04:54.286Z,0.10
2023-04-02T16:15:09.509Z,0.20
2023-04-02T16:25:19.564Z,0.00
2023-04-02T16:35:58.671Z,0.10
2023-04-02T16:46:40.239Z,0.10
2023-04-02T16:56:49.500Z,0.30
2023-04-02T17:07:22.048Z,0.47
2023-04-02T17:17:25.521Z,0.17
2023-04-02T17:27:45.825Z,0.40
2023-04-02T17:38:03.261Z,0.90
2023-04-02T17:48:27.361Z,0.37
2023-04-02T17:59:00.088Z,0.50
2023-04-02T18:09:34.916Z,0.20
2023-04-02T18:20:04.129Z,0.50
2023-04-02T18:30:21.353Z,0.30
2023-04-02T18:40:41.860Z,0.80
2023-04-02T18:50:47.136Z,0.40
2023-04-02T19:00:51.742Z,0.30
2023-04-02T19:11:01.141Z,0.13
2023-04-02T19:21:25.463Z,0.20
2023-04-02T19:31:53.325Z,0.20
2023-04-02T19:42:19.679Z,0.33
2023-04-02T19:52:22.081Z,0.53
2023-04-02T20:02:24.699Z,0.50
2023-04-02T20:12:27.268Z,1.37
2023-04-02T20:22:29.929Z,2.60
2023-04-02T20:32:32.592Z,3.50
2023-04-02T20:42:35.034Z,3.90
2023-04-02T20:52:38.199Z,2.83
2023-04-02T21:02:40.755Z,3.00
2023-04-02T21:12:43.363Z,3.10
2023-04-02T21:22:45.965Z,4.20
2023-04-02T21:32:49.590Z,4.47
2023-04-02T21:42:52.229Z,6.00
2023-04-02T21:52:54.747Z,6.77
2023-04-02T22:02:57.558Z,6.40
2023-04-02T22:13:00.190Z,7.07
2023-04-02T22:23:02.715Z,7.73
2023-04-02T22:33:05.210Z,6.90
2023-04-02T22:43:07.595Z,9.47
2023-04-02T22:53:12.278Z,9.27
2023-04-02T23:03:14.648Z,8.57
2023-04-02T23:13:17.108Z,8.30
2023-04-02T23:23:19.604Z,8.20
2023-04-02T23:33:22.388Z,8.20
2023-04-02T23:43:24.750Z,8.10
2023-04-02T23:53:27.225Z,7.57
